createdAt,value
2018-11-10T00:02:34.209Z,23.3
2018-11-10T00:12:33.418Z,24.3
2018-11-10T00:22:32.625Z,24.4
2018-11-10T00:32:31.835Z,23.6
2018-11-10T00:42:31.082Z,23
2018-11-10T00:52:30.262Z,22.9
2018-11-10T01:02:29.467Z,23
2018-11-10T01:12:28.679Z,23.4
2018-11-10T01:22:27.897Z,23.8
2018-11-10T01:32:27.108Z,24
2018-11-10T01:42:26.317Z,23
2018-11-10T01:52:25.521Z,22.9
2018-11-10T02:02:24.737Z,23
2018-11-10T02:12:23.953Z,23.1
2018-11-10T02:22:23.161Z,23.4
2018-11-10T02:32:22.365Z,23.6
2018-11-10T02:42:21.580Z,23.7
2018-11-10T02:52:20.787Z,23.7
2018-11-10T03:02:20.009Z,24.1
2018-11-10T03:12:19.218Z,24.2
2018-11-10T03:22:18.423Z,23.9
2018-11-10T03:32:17.631Z,22.9
2018-11-10T03:42:16.844Z,22.9
2018-11-10T03:52:16.062Z,22.9
2018-11-10T04:02:15.265Z,23
2018-11-10T04:12:14.475Z,23.4
2018-11-10T04:22:13.680Z,23.6
2018-11-10T04:32:12.896Z,23.6
2018-11-10T04:42:12.108Z,23.6
2018-11-10T04:52:11.310Z,23.6
2018-11-10T05:02:10.524Z,23.6
2018-11-10T05:12:09.729Z,23.6
2018-11-10T05:22:08.953Z,23.6
2018-11-10T05:32:08.150Z,23.6
2018-11-10T05:42:07.364Z,24.1
2018-11-10T05:52:06.574Z,24.1
2018-11-10T06:02:05.780Z,23.1
2018-11-10T06:12:04.995Z,23
2018-11-10T06:22:04.209Z,24
2018-11-10T06:32:03.425Z,24.8
2018-11-10T06:42:02.675Z,24.3
2018-11-10T06:52:01.849Z,24.1
2018-11-10T07:02:01.048Z,24.1
2018-11-10T07:12:00.262Z,24.2
2018-11-10T07:21:59.468Z,24.1
2018-11-10T07:31:58.736Z,24.1
2018-11-10T07:41:57.892Z,24.3
2018-11-10T07:51:57.100Z,24.4
2018-11-10T08:01:56.311Z,24.4
2018-11-10T08:11:55.576Z,24.4
2018-11-10T08:21:54.737Z,24.4
2018-11-10T08:31:53.949Z,24.4
2018-11-10T08:41:53.155Z,24.4
2018-11-10T08:51:52.372Z,24.6
2018-11-10T09:01:51.583Z,24.6
2018-11-10T09:11:50.800Z,24.3
2018-11-10T09:21:50.065Z,24.3
2018-11-10T09:31:49.215Z,24.1
2018-11-10T09:41:48.491Z,24
2018-11-10T09:51:47.642Z,24.1
2018-11-10T10:01:47.140Z,24.1
2018-11-10T10:11:46.065Z,24
2018-11-10T10:21:45.307Z,24.1
2018-11-10T10:31:44.487Z,24.2
2018-11-10T10:41:43.711Z,24.4
2018-11-10T10:51:42.912Z,24.6
2018-11-10T11:01:42.141Z,24.7
2018-11-10T11:11:41.336Z,24.7
2018-11-10T11:21:40.565Z,24.6
2018-11-10T11:31:39.761Z,24.4
2018-11-10T11:41:39.072Z,24.5
2018-11-10T11:51:38.188Z,24.5
2018-11-10T12:01:37.398Z,24.3
2018-11-10T12:11:36.612Z,24.2
2018-11-10T12:21:35.822Z,24.3
2018-11-10T12:31:35.044Z,24.5
2018-11-10T12:41:34.253Z,24.7
2018-11-10T12:51:33.464Z,24.5
2018-11-10T13:01:32.681Z,24.2
2018-11-10T13:11:32.051Z,24.2
2018-11-10T13:21:31.099Z,24
2018-11-10T13:31:30.406Z,23.9
2018-11-10T13:41:29.523Z,23.9
2018-11-10T13:51:28.864Z,23.9
2018-11-10T14:01:27.940Z,23.7
2018-11-10T14:11:27.154Z,23.7
2018-11-10T14:21:26.361Z,23.7
2018-11-10T14:31:25.576Z,23.6
2018-11-10T14:41:24.790Z,23.3
2018-11-10T14:51:24.004Z,23.4
2018-11-10T15:01:23.218Z,23.2
2018-11-10T15:11:22.464Z,23.3
2018-11-10T15:21:21.642Z,23.2
2018-11-10T15:31:20.865Z,23
2018-11-10T15:41:20.066Z,22.4
2018-11-10T15:51:19.274Z,23.3
2018-11-10T16:01:18.493Z,24.1
2018-11-10T16:11:17.707Z,23.9
2018-11-10T16:21:16.908Z,23.5
2018-11-10T16:31:16.122Z,22.9
2018-11-10T16:41:15.336Z,23.1
2018-11-10T16:51:14.542Z,23.4
2018-11-10T17:01:13.754Z,23.1
2018-11-10T17:11:12.965Z,22.9
2018-11-10T17:21:12.182Z,22.9
2018-11-10T17:31:11.386Z,22.5
2018-11-10T17:41:10.597Z,23.2
2018-11-10T17:51:09.812Z,23.2
2018-11-10T18:01:09.023Z,22.7
2018-11-10T18:11:08.288Z,23.1
2018-11-10T18:21:07.449Z,23.1
2018-11-10T18:31:06.661Z,22.6
2018-11-10T18:41:05.870Z,22.9
2018-11-10T18:51:05.080Z,23.5
2018-11-10T19:01:04.299Z,23.4
2018-11-10T19:11:03.512Z,23.2
2018-11-10T19:21:02.785Z,23
2018-11-10T19:31:01.930Z,23.1
2018-11-10T19:41:01.149Z,23.1
2018-11-10T19:51:00.566Z,23.1
2018-11-10T20:00:59.625Z,22.8
2018-11-10T20:10:58.779Z,22.8
2018-11-10T20:20:57.993Z,22.9
2018-11-10T20:30:57.204Z,22.6
2018-11-10T20:40:56.411Z,23.2
2018-11-10T20:50:55.628Z,23.6
2018-11-10T21:00:54.841Z,23.2
2018-11-10T21:10:54.055Z,22.9
2018-11-10T21:20:53.288Z,22.3
2018-11-10T21:30:52.475Z,22.6
2018-11-10T21:40:51.693Z,22.6
2018-11-10T21:50:50.912Z,23.4
2018-11-10T22:00:50.112Z,23.8
2018-11-10T22:10:49.321Z,23.6
2018-11-10T22:20:48.533Z,23.2
2018-11-10T22:30:47.755Z,22.8
2018-11-10T22:40:46.951Z,22.4
2018-11-10T22:50:46.216Z,22.7
2018-11-10T23:00:45.379Z,23.1
2018-11-10T23:10:44.586Z,23.3
2018-11-10T23:20:43.801Z,22.6
2018-11-10T23:30:43.007Z,23.4
2018-11-10T23:40:42.218Z,23.1
2018-11-10T23:50:41.428Z,22.9
